createdAt,value
2024-03-10T00:00:16.135Z,4.00
2024-03-10T00:02:46.751Z,3.90
2024-03-10T00:05:14.699Z,3.90
2024-03-10T00:07:47.113Z,3.90
2024-03-10T00:10:15.730Z,3.90
2024-03-10T00:12:47.980Z,3.90
2024-03-10T00:15:16.175Z,3.90
2024-03-10T00:17:43.769Z,3.90
2024-03-10T00:20:11.729Z,4.20
2024-03-10T00:22:39.863Z,3.80
2024-03-10T00:25:10.353Z,3.80
2024-03-10T00:27:39.831Z,3.80
2024-03-10T00:30:08.942Z,3.70
2024-03-10T00:32:38.920Z,3.70
2024-03-10T00:35:07.378Z,3.70
2024-03-10T00:37:37.524Z,3.60
2024-03-10T00:40:08.735Z,3.60
2024-03-10T00:42:35.534Z,3.60
2024-03-10T00:45:02.781Z,3.60
2024-03-10T00:47:29.760Z,3.60
2024-03-10T00:49:56.739Z,3.60
2024-03-10T00:52:23.582Z,3.60
2024-03-10T00:54:50.515Z,3.50
2024-03-10T00:57:17.401Z,3.50
2024-03-10T00:59:44.265Z,3.50
2024-03-10T01:02:11.927Z,3.50
2024-03-10T01:04:39.216Z,3.50
2024-03-10T01:07:06.339Z,3.50
2024-03-10T01:09:34.262Z,3.50
2024-03-10T01:12:01.053Z,3.50
2024-03-10T01:14:27.989Z,3.40
2024-03-10T01:16:54.860Z,3.40
2024-03-10T01:19:21.743Z,3.40
2024-03-10T01:21:48.568Z,3.30
2024-03-10T01:24:15.386Z,3.30
2024-03-10T01:26:42.282Z,3.30
2024-03-10T01:29:09.677Z,3.30
2024-03-10T01:31:36.880Z,3.30
2024-03-10T01:34:03.733Z,3.30
2024-03-10T01:36:31.891Z,3.30
2024-03-10T01:38:58.630Z,3.30
2024-03-10T01:41:26.732Z,3.30
2024-03-10T01:43:54.208Z,3.30
2024-03-10T01:46:22.722Z,3.30
2024-03-10T01:48:49.551Z,3.30
2024-03-10T01:51:16.415Z,3.30
2024-03-10T01:53:47.609Z,3.30
2024-03-10T01:56:15.688Z,3.20
2024-03-10T01:58:47.493Z,3.10
2024-03-10T02:01:15.717Z,3.20
2024-03-10T02:03:45.526Z,3.20
2024-03-10T02:06:12.425Z,3.20
2024-03-10T02:08:40.178Z,3.30
2024-03-10T02:11:09.230Z,3.20
2024-03-10T02:13:37.262Z,3.20
2024-03-10T02:16:06.596Z,3.20
2024-03-10T02:18:33.915Z,3.30
2024-03-10T02:21:02.176Z,3.20
2024-03-10T02:24:13.976Z,3.20
2024-03-10T02:26:45.801Z,3.20
2024-03-10T02:29:27.141Z,3.10
2024-03-10T02:32:12.946Z,3.10
2024-03-10T02:34:58.421Z,3.10
2024-03-10T02:37:45.624Z,3.10
2024-03-10T02:40:31.115Z,3.10
2024-03-10T02:43:16.570Z,3.10
2024-03-10T02:46:01.940Z,3.10
2024-03-10T02:48:30.145Z,3.20
2024-03-10T02:50:57.243Z,3.20
2024-03-10T02:53:24.128Z,3.20
2024-03-10T02:55:50.909Z,3.20
2024-03-10T02:58:21.729Z,3.20
2024-03-10T03:00:49.349Z,3.10
2024-03-10T03:03:16.852Z,3.00
2024-03-10T03:05:43.588Z,3.00
2024-03-10T03:08:10.477Z,3.00
2024-03-10T03:10:37.312Z,2.90
2024-03-10T03:13:04.497Z,2.90
2024-03-10T03:15:31.314Z,2.90
2024-03-10T03:17:59.897Z,2.90
2024-03-10T03:20:27.198Z,2.90
2024-03-10T03:23:05.727Z,2.90
2024-03-10T03:25:32.666Z,2.90
2024-03-10T03:27:59.731Z,2.90
2024-03-10T03:30:26.462Z,2.90
2024-03-10T03:32:53.263Z,2.90
2024-03-10T03:35:20.325Z,2.90
2024-03-10T03:37:48.087Z,2.90
2024-03-10T03:40:16.136Z,2.90
2024-03-10T03:42:43.519Z,2.90
2024-03-10T03:45:10.879Z,2.90
2024-03-10T03:47:38.264Z,2.90
2024-03-10T03:50:06.257Z,2.80
2024-03-10T03:52:33.224Z,2.80
2024-03-10T03:55:00.767Z,2.80
2024-03-10T03:57:27.633Z,2.80
2024-03-10T03:59:54.818Z,2.80
2024-03-10T04:02:26.827Z,2.80
2024-03-10T04:04:56.308Z,2.80
2024-03-10T04:07:23.530Z,2.70
2024-03-10T04:09:50.458Z,2.70
2024-03-10T04:12:17.292Z,2.70
2024-03-10T04:14:44.227Z,2.70
2024-03-10T04:17:11.576Z,2.60
2024-03-10T04:19:38.346Z,2.70
2024-03-10T04:22:10.640Z,2.70
2024-03-10T04:24:44.249Z,2.60
2024-03-10T04:27:11.116Z,2.60
2024-03-10T04:29:38.109Z,2.60
2024-03-10T04:32:08.282Z,2.60
2024-03-10T04:34:37.227Z,2.60
2024-03-10T04:37:06.056Z,2.60
2024-03-10T04:39:34.195Z,2.60
2024-03-10T04:42:01.076Z,2.60
2024-03-10T04:44:27.920Z,2.60
2024-03-10T04:46:54.801Z,2.60
2024-03-10T04:49:21.621Z,2.70
2024-03-10T04:51:48.334Z,2.60
2024-03-10T04:54:15.088Z,2.60
2024-03-10T04:56:41.907Z,2.60
2024-03-10T04:59:10.625Z,2.60
2024-03-10T05:01:37.407Z,2.70
2024-03-10T05:04:04.382Z,2.70
2024-03-10T05:06:31.073Z,2.70
2024-03-10T05:08:59.309Z,2.70
2024-03-10T05:11:26.120Z,2.70
2024-03-10T05:13:53.281Z,2.70
2024-03-10T05:16:20.064Z,2.80
2024-03-10T05:18:47.457Z,2.70
2024-03-10T05:21:14.257Z,2.70
2024-03-10T05:23:41.105Z,2.70
2024-03-10T05:26:07.898Z,2.80
2024-03-10T05:28:34.684Z,2.80
2024-03-10T05:31:01.453Z,2.80
2024-03-10T05:33:28.355Z,3.00
2024-03-10T05:35:55.178Z,3.00
2024-03-10T05:38:22.548Z,3.00
2024-03-10T05:40:49.394Z,3.20
2024-03-10T05:43:16.162Z,3.30
2024-03-10T05:45:42.891Z,3.40
2024-03-10T05:48:12.056Z,3.50
2024-03-10T05:50:39.358Z,3.70
2024-03-10T05:53:06.172Z,3.80
2024-03-10T05:55:33.982Z,3.90
2024-03-10T05:58:01.155Z,4.10
2024-03-10T06:00:32.525Z,4.20
2024-03-10T06:02:59.309Z,4.40
2024-03-10T06:05:27.108Z,4.40
2024-03-10T06:07:53.882Z,4.40
2024-03-10T06:10:22.197Z,4.30
2024-03-10T06:12:48.958Z,4.30
2024-03-10T06:15:17.530Z,4.30
2024-03-10T06:18:03.226Z,4.30
2024-03-10T06:20:48.590Z,4.30
2024-03-10T06:23:34.877Z,4.30
2024-03-10T06:26:01.692Z,4.30
2024-03-10T06:28:28.582Z,4.20
2024-03-10T06:30:59.420Z,4.20
2024-03-10T06:33:26.252Z,4.20
2024-03-10T06:35:53.085Z,4.20
2024-03-10T06:38:20.021Z,4.20
2024-03-10T06:40:46.946Z,4.20
2024-03-10T06:43:15.102Z,4.20
2024-03-10T06:45:43.510Z,4.20
2024-03-10T06:48:18.230Z,4.30
2024-03-10T06:50:48.102Z,4.30
2024-03-10T06:53:15.127Z,4.30
2024-03-10T06:55:41.979Z,4.30
2024-03-10T06:58:08.759Z,4.40
2024-03-10T07:00:37.153Z,4.40
2024-03-10T07:03:04.491Z,4.50
2024-03-10T07:05:31.760Z,4.60
2024-03-10T07:07:58.669Z,4.70
2024-03-10T07:10:25.483Z,4.90
2024-03-10T07:12:52.198Z,5.10
2024-03-10T07:15:19.081Z,5.30
2024-03-10T07:17:45.933Z,5.50
2024-03-10T07:20:13.335Z,5.80
2024-03-10T07:22:42.548Z,5.90
2024-03-10T07:25:09.713Z,6.00
2024-03-10T07:27:36.496Z,6.10
2024-03-10T07:30:05.569Z,6.30
2024-03-10T07:32:33.255Z,6.40
2024-03-10T07:35:01.496Z,6.50
2024-03-10T07:37:28.915Z,6.60
2024-03-10T07:39:55.753Z,6.70
2024-03-10T07:42:22.880Z,6.90
2024-03-10T07:44:49.699Z,7.00
2024-03-10T07:47:16.593Z,7.10
2024-03-10T07:49:43.346Z,7.20
2024-03-10T07:52:10.176Z,7.30
2024-03-10T07:54:36.953Z,7.30
2024-03-10T07:57:04.320Z,7.30
2024-03-10T07:59:31.077Z,7.30
2024-03-10T08:01:57.847Z,7.40
2024-03-10T08:04:24.659Z,7.40
2024-03-10T08:06:51.382Z,7.40
2024-03-10T08:09:19.148Z,7.40
2024-03-10T08:11:46.802Z,7.30
2024-03-10T08:14:13.761Z,7.20
2024-03-10T08:16:41.967Z,7.20
2024-03-10T08:19:08.768Z,7.10
2024-03-10T08:21:35.498Z,7.10
2024-03-10T08:24:02.216Z,7.10
2024-03-10T08:26:29.229Z,7.20
2024-03-10T08:28:56.526Z,7.20
2024-03-10T08:31:23.500Z,7.30
2024-03-10T08:33:50.332Z,7.40
2024-03-10T08:36:17.911Z,7.60
2024-03-10T08:38:44.903Z,7.80
2024-03-10T08:41:12.287Z,10.10
2024-03-10T08:43:39.336Z,11.30
2024-03-10T08:46:06.254Z,14.80
2024-03-10T08:48:33.184Z,17.70
2024-03-10T08:51:00.096Z,19.50
2024-03-10T08:53:28.240Z,18.80
2024-03-10T08:55:55.568Z,20.20
2024-03-10T08:58:22.791Z,20.00
2024-03-10T09:00:50.932Z,18.30
2024-03-10T09:03:18.228Z,16.40
2024-03-10T09:05:45.031Z,15.10
2024-03-10T09:08:11.912Z,14.30
2024-03-10T09:10:49.515Z,14.50
2024-03-10T09:13:20.735Z,16.00
2024-03-10T09:15:47.837Z,16.80
2024-03-10T09:18:14.629Z,16.60
2024-03-10T09:20:43.294Z,17.30
2024-03-10T09:23:10.177Z,18.70
2024-03-10T09:25:37.087Z,19.50
2024-03-10T09:28:06.831Z,19.40
2024-03-10T09:30:33.677Z,19.60
2024-03-10T09:33:00.664Z,20.80
2024-03-10T09:35:30.504Z,21.70
2024-03-10T09:38:05.235Z,21.20
2024-03-10T09:40:33.065Z,20.50
2024-03-10T09:43:05.863Z,19.70
2024-03-10T09:45:44.690Z,18.60
2024-03-10T09:48:11.856Z,17.60
2024-03-10T09:50:43.585Z,16.60
2024-03-10T09:53:13.215Z,15.40
2024-03-10T09:55:40.001Z,15.00
2024-03-10T09:58:23.421Z,14.60
2024-03-10T10:00:57.861Z,14.40
2024-03-10T10:03:25.162Z,14.60
2024-03-10T10:05:59.828Z,14.90
2024-03-10T10:08:26.633Z,14.90
2024-03-10T10:10:53.487Z,14.60
2024-03-10T10:13:31.226Z,14.30
2024-03-10T10:16:00.458Z,13.90
2024-03-10T10:18:31.033Z,13.60
2024-03-10T10:20:59.888Z,13.30
2024-03-10T10:23:27.609Z,13.20
2024-03-10T10:26:13.923Z,13.20
2024-03-10T10:28:44.147Z,13.20
2024-03-10T10:31:16.503Z,13.30
2024-03-10T10:33:46.489Z,13.40
2024-03-10T10:36:14.865Z,13.40
2024-03-10T10:38:46.617Z,13.40
2024-03-10T10:41:13.626Z,13.40
2024-03-10T10:43:40.806Z,13.60
2024-03-10T10:46:11.493Z,14.10
2024-03-10T10:48:41.504Z,14.30
2024-03-10T10:51:09.578Z,14.40
2024-03-10T10:53:42.450Z,14.60
2024-03-10T10:56:10.207Z,14.70
2024-03-10T10:58:37.058Z,14.90
2024-03-10T11:01:05.755Z,15.10
2024-03-10T11:03:37.683Z,15.00
2024-03-10T11:06:07.002Z,15.00
2024-03-10T11:08:36.441Z,15.00
2024-03-10T11:11:04.907Z,15.00
2024-03-10T11:13:33.525Z,15.00
2024-03-10T11:16:15.126Z,14.90
2024-03-10T11:18:45.406Z,14.90
2024-03-10T11:21:18.751Z,14.80
2024-03-10T11:23:47.754Z,14.70
2024-03-10T11:26:28.740Z,14.50
2024-03-10T11:28:59.731Z,14.40
2024-03-10T11:31:36.250Z,14.30
2024-03-10T11:34:05.242Z,14.20
2024-03-10T11:36:37.730Z,14.20
2024-03-10T11:39:05.956Z,14.00
2024-03-10T11:41:34.008Z,13.90
2024-03-10T11:44:01.497Z,13.80
2024-03-10T11:46:34.359Z,13.70
2024-03-10T11:49:02.906Z,13.60
2024-03-10T11:51:32.742Z,13.50
2024-03-10T11:54:04.908Z,13.60
2024-03-10T11:56:35.162Z,13.40
2024-03-10T11:59:04.866Z,13.40
2024-03-10T12:01:32.276Z,13.50
2024-03-10T12:04:06.717Z,13.70
2024-03-10T12:06:36.741Z,13.70
2024-03-10T12:09:14.538Z,13.80
2024-03-10T12:11:43.107Z,13.80
2024-03-10T12:14:11.554Z,13.80
2024-03-10T12:16:39.709Z,13.80
2024-03-10T12:19:07.520Z,13.80
2024-03-10T12:21:34.473Z,13.60
2024-03-10T12:24:04.314Z,13.70
2024-03-10T12:26:33.413Z,13.80
2024-03-10T12:29:00.293Z,13.90
2024-03-10T12:31:29.442Z,13.90
2024-03-10T12:33:57.159Z,13.90
2024-03-10T12:36:24.032Z,14.00
2024-03-10T12:38:53.801Z,14.00
2024-03-10T12:41:21.545Z,14.00
2024-03-10T12:43:48.406Z,13.90
2024-03-10T12:46:22.560Z,13.90
2024-03-10T12:48:49.547Z,14.00
2024-03-10T12:51:16.724Z,14.00
2024-03-10T12:53:43.966Z,14.00
2024-03-10T12:56:12.715Z,14.10
2024-03-10T12:58:40.442Z,14.20
2024-03-10T13:01:07.279Z,14.30
2024-03-10T13:03:35.562Z,14.30
2024-03-10T13:06:04.044Z,14.40
2024-03-10T13:08:31.609Z,14.50
2024-03-10T13:10:59.512Z,14.70
2024-03-10T13:13:26.576Z,14.70
2024-03-10T13:15:54.231Z,14.80
2024-03-10T13:18:22.856Z,14.80
2024-03-10T13:20:49.945Z,14.80
2024-03-10T13:23:17.063Z,14.70
2024-03-10T13:25:43.950Z,14.70
2024-03-10T13:28:11.005Z,14.80
2024-03-10T13:30:39.421Z,15.00
2024-03-10T13:33:06.996Z,15.20
2024-03-10T13:35:34.744Z,15.40
2024-03-10T13:38:04.547Z,15.40
2024-03-10T13:40:31.921Z,15.40
2024-03-10T13:42:58.808Z,15.20
2024-03-10T13:45:35.452Z,15.00
2024-03-10T13:48:07.488Z,15.00
2024-03-10T13:50:35.035Z,15.00
2024-03-10T13:53:02.070Z,14.90
2024-03-10T13:55:28.929Z,14.90
2024-03-10T13:57:56.098Z,14.90
2024-03-10T14:00:26.450Z,14.90
2024-03-10T14:02:54.451Z,14.80
2024-03-10T14:05:23.301Z,14.70
2024-03-10T14:07:50.194Z,14.60
2024-03-10T14:10:20.542Z,14.40
2024-03-10T14:12:47.447Z,14.20
2024-03-10T14:15:16.157Z,13.90
2024-03-10T14:17:46.689Z,13.80
2024-03-10T14:20:16.278Z,13.70
2024-03-10T14:22:53.637Z,13.60
2024-03-10T14:25:20.553Z,13.60
2024-03-10T14:27:52.031Z,13.50
2024-03-10T14:30:22.298Z,13.50
2024-03-10T14:32:52.156Z,13.50
2024-03-10T14:35:22.625Z,13.40
2024-03-10T14:37:50.380Z,13.30
2024-03-10T14:40:22.177Z,13.20
2024-03-10T14:42:55.567Z,13.10
2024-03-10T14:45:26.246Z,13.00
2024-03-10T14:47:53.735Z,12.90
2024-03-10T14:50:26.580Z,12.80
2024-03-10T14:52:55.597Z,12.70
2024-03-10T14:55:23.027Z,12.60
2024-03-10T14:57:50.223Z,12.50
2024-03-10T15:00:35.868Z,12.50
2024-03-10T15:03:20.302Z,12.50
2024-03-10T15:05:50.533Z,12.50
2024-03-10T15:08:20.344Z,12.60
2024-03-10T15:10:52.734Z,12.60
2024-03-10T15:13:22.216Z,12.60
2024-03-10T15:15:49.846Z,12.60
2024-03-10T15:18:19.180Z,12.60
2024-03-10T15:20:47.803Z,12.70
2024-03-10T15:23:18.253Z,12.50
2024-03-10T15:25:48.009Z,12.50
2024-03-10T15:28:16.118Z,12.50
2024-03-10T15:30:43.861Z,12.40
2024-03-10T15:33:12.709Z,12.30
2024-03-10T15:35:40.125Z,12.30
2024-03-10T15:38:07.293Z,12.20
2024-03-10T15:40:35.677Z,12.20
2024-03-10T15:43:05.331Z,12.20
2024-03-10T15:45:36.051Z,12.10
2024-03-10T15:48:05.627Z,12.10
2024-03-10T15:50:33.155Z,12.00
2024-03-10T15:53:02.308Z,11.90
2024-03-10T15:55:31.472Z,11.80
2024-03-10T15:57:58.467Z,11.80
2024-03-10T16:00:26.773Z,11.80
2024-03-10T16:02:55.712Z,11.70
2024-03-10T16:05:40.038Z,11.70
2024-03-10T16:08:07.888Z,11.60
2024-03-10T16:10:36.586Z,11.50
2024-03-10T16:13:06.725Z,11.40
2024-03-10T16:15:34.851Z,11.30
2024-03-10T16:18:04.033Z,11.30
2024-03-10T16:20:34.107Z,11.20
2024-03-10T16:23:01.040Z,11.10
2024-03-10T16:25:27.776Z,11.10
2024-03-10T16:27:54.497Z,11.00
2024-03-10T16:30:21.315Z,10.90
2024-03-10T16:32:50.936Z,10.90
2024-03-10T16:35:17.836Z,10.80
2024-03-10T16:37:45.769Z,10.70
2024-03-10T16:40:14.104Z,10.70
2024-03-10T16:42:43.603Z,10.70
2024-03-10T16:45:17.342Z,10.60
2024-03-10T16:47:47.232Z,10.60
2024-03-10T16:50:19.899Z,10.60
2024-03-10T16:52:48.205Z,10.50
2024-03-10T16:55:14.994Z,10.50
2024-03-10T16:57:41.752Z,10.50
2024-03-10T17:00:14.298Z,10.50
2024-03-10T17:02:45.881Z,10.40
2024-03-10T17:05:16.761Z,10.40
2024-03-10T17:07:44.141Z,10.40
2024-03-10T17:10:12.418Z,10.30
2024-03-10T17:12:40.607Z,10.30
2024-03-10T17:15:13.726Z,10.30
2024-03-10T17:17:43.545Z,10.30
2024-03-10T17:20:13.121Z,10.20
2024-03-10T17:22:41.541Z,10.20
2024-03-10T17:25:10.019Z,10.20
2024-03-10T17:27:38.175Z,10.20
2024-03-10T17:30:07.630Z,10.20
2024-03-10T17:32:35.789Z,10.10
2024-03-10T17:35:03.862Z,10.10
2024-03-10T17:37:30.844Z,10.10
2024-03-10T17:39:57.646Z,10.10
2024-03-10T17:42:24.991Z,10.00
2024-03-10T17:44:51.821Z,10.00
2024-03-10T17:47:19.824Z,9.90
2024-03-10T17:49:47.635Z,9.90
2024-03-10T17:52:14.845Z,9.90
2024-03-10T17:54:41.948Z,9.90
2024-03-10T17:57:15.009Z,9.90
2024-03-10T17:59:42.089Z,9.80
2024-03-10T18:02:09.318Z,9.80
2024-03-10T18:04:36.285Z,9.80
2024-03-10T18:07:06.937Z,9.80
2024-03-10T18:09:34.027Z,9.80
2024-03-10T18:12:01.573Z,9.70
2024-03-10T18:14:28.584Z,9.70
2024-03-10T18:16:55.608Z,9.80
2024-03-10T18:19:23.278Z,9.80
2024-03-10T18:21:50.724Z,9.70
2024-03-10T18:24:18.733Z,9.70
2024-03-10T18:26:46.422Z,9.70
2024-03-10T18:29:16.521Z,9.70
2024-03-10T18:31:44.213Z,9.70
2024-03-10T18:34:13.934Z,9.60
2024-03-10T18:36:43.981Z,9.60
2024-03-10T18:39:11.824Z,9.60
2024-03-10T18:41:38.821Z,9.60
2024-03-10T18:44:07.453Z,9.60
2024-03-10T18:46:34.586Z,9.60
2024-03-10T18:49:01.407Z,9.60
2024-03-10T18:51:28.227Z,9.50
2024-03-10T18:53:56.312Z,9.60
2024-03-10T18:56:23.482Z,9.60
2024-03-10T18:58:50.237Z,9.60
2024-03-10T19:01:17.908Z,9.50
2024-03-10T19:03:48.125Z,9.50
2024-03-10T19:06:17.583Z,9.50
2024-03-10T19:08:45.619Z,9.50
2024-03-10T19:11:13.287Z,9.50
2024-03-10T19:13:41.973Z,9.50
2024-03-10T19:16:09.957Z,9.50
2024-03-10T19:18:36.818Z,9.50
2024-03-10T19:21:04.350Z,9.50
2024-03-10T19:23:32.684Z,9.50
2024-03-10T19:26:04.144Z,9.50
2024-03-10T19:28:31.285Z,9.50
2024-03-10T19:31:01.072Z,9.50
2024-03-10T19:33:28.409Z,9.50
2024-03-10T19:35:56.256Z,9.40
2024-03-10T19:38:23.479Z,9.40
2024-03-10T19:40:53.116Z,9.40
2024-03-10T19:43:21.049Z,9.30
2024-03-10T19:45:49.066Z,9.30
2024-03-10T19:48:19.618Z,9.30
2024-03-10T19:50:51.259Z,9.30
2024-03-10T19:53:22.620Z,9.30
2024-03-10T19:55:54.113Z,9.30
2024-03-10T19:58:21.151Z,9.30
2024-03-10T20:00:50.691Z,9.30
2024-03-10T20:03:17.683Z,9.30
2024-03-10T20:05:44.820Z,9.20
2024-03-10T20:08:14.378Z,9.20
2024-03-10T20:10:41.748Z,9.20
2024-03-10T20:13:09.880Z,9.20
2024-03-10T20:15:37.033Z,9.20
2024-03-10T20:18:04.100Z,9.20
2024-03-10T20:20:30.923Z,9.10
2024-03-10T20:23:01.988Z,9.10
2024-03-10T20:25:31.717Z,9.10
2024-03-10T20:27:58.609Z,9.10
2024-03-10T20:30:26.677Z,9.10
2024-03-10T20:32:53.677Z,9.00
2024-03-10T20:35:21.505Z,9.00
2024-03-10T20:37:48.645Z,9.00
2024-03-10T20:40:16.313Z,9.00
2024-03-10T20:42:44.070Z,8.90
2024-03-10T20:45:11.776Z,8.90
2024-03-10T20:47:42.099Z,8.90
2024-03-10T20:50:10.437Z,8.80
2024-03-10T20:52:38.471Z,8.80
2024-03-10T20:55:06.982Z,8.80
2024-03-10T20:57:34.073Z,8.80
2024-03-10T21:00:00.867Z,8.70
2024-03-10T21:02:27.661Z,8.70
2024-03-10T21:04:54.423Z,8.70
2024-03-10T21:07:21.375Z,8.70
2024-03-10T21:09:48.794Z,8.70
2024-03-10T21:12:15.935Z,8.70
2024-03-10T21:14:44.508Z,8.60
2024-03-10T21:17:11.318Z,8.60
2024-03-10T21:19:38.451Z,8.60
2024-03-10T21:22:09.979Z,8.60
2024-03-10T21:24:36.751Z,8.60
2024-03-10T21:27:04.197Z,8.50
2024-03-10T21:29:31.105Z,8.60
2024-03-10T21:31:57.890Z,8.60
2024-03-10T21:34:25.665Z,8.60
2024-03-10T21:36:53.152Z,8.50
2024-03-10T21:39:21.327Z,8.50
2024-03-10T21:41:48.679Z,8.50
2024-03-10T21:44:15.634Z,8.50
2024-03-10T21:46:42.870Z,8.50
2024-03-10T21:49:09.938Z,8.50
2024-03-10T21:51:36.896Z,8.50
2024-03-10T21:54:06.082Z,8.50
2024-03-10T21:56:34.465Z,8.50
2024-03-10T21:59:01.829Z,8.50
2024-03-10T22:01:28.706Z,8.50
2024-03-10T22:03:56.869Z,8.50
2024-03-10T22:06:23.663Z,8.40
2024-03-10T22:08:50.510Z,8.40
2024-03-10T22:11:17.478Z,8.40
2024-03-10T22:13:44.261Z,8.40
2024-03-10T22:16:11.009Z,8.40
2024-03-10T22:18:37.907Z,8.40
2024-03-10T22:21:05.401Z,8.40
2024-03-10T22:23:33.962Z,8.40
2024-03-10T22:26:01.093Z,8.30
2024-03-10T22:28:27.889Z,8.30
2024-03-10T22:30:54.670Z,8.40
2024-03-10T22:33:21.472Z,8.40
2024-03-10T22:35:49.538Z,8.40
2024-03-10T22:38:16.544Z,8.40
2024-03-10T22:40:44.096Z,8.40
2024-03-10T22:43:10.862Z,8.40
2024-03-10T22:45:38.385Z,8.40
2024-03-10T22:48:06.186Z,8.40
2024-03-10T22:50:33.685Z,8.40
2024-03-10T22:53:06.570Z,8.40
2024-03-10T22:55:34.036Z,8.40
2024-03-10T22:58:01.811Z,8.30
2024-03-10T23:00:34.457Z,8.30
2024-03-10T23:03:07.343Z,8.30
2024-03-10T23:05:35.714Z,8.20
2024-03-10T23:08:05.809Z,8.30
2024-03-10T23:10:35.638Z,8.30
2024-03-10T23:13:04.829Z,8.30
2024-03-10T23:15:33.407Z,8.20
2024-03-10T23:18:00.647Z,8.20
2024-03-10T23:20:27.769Z,8.20
2024-03-10T23:23:01.107Z,8.20
2024-03-10T23:25:30.814Z,8.20
2024-03-10T23:27:59.211Z,8.20
2024-03-10T23:30:29.213Z,8.20
2024-03-10T23:32:56.906Z,8.20
2024-03-10T23:35:24.406Z,8.20
2024-03-10T23:37:51.312Z,8.30
2024-03-10T23:40:20.212Z,8.30
2024-03-10T23:42:50.822Z,8.30
2024-03-10T23:45:20.458Z,8.30
2024-03-10T23:47:51.085Z,8.20
2024-03-10T23:50:21.223Z,8.30
2024-03-10T23:52:53.807Z,8.30
2024-03-10T23:55:23.631Z,8.20
2024-03-10T23:57:52.004Z,8.30
